Terminal Aerodrome Forecast
Issued by NWS

Home | Current Version | Previous Version | Text Only | Print | Product List | Glossary On
Versions: 1 2 3 4 5 6 7 8 9 10 11 12 13 14 15 16 17
000
FTAK31 PAJN 291800 AAA
TAFASI
TAF AMD
PASI 291848Z 2919/3018 29008KT P6SM SCT015
     FM300200 29014KT P6SM BKN010
     FM300500 31007KT P6SM OVC008
     FM300800 31006KT P6SM OVC005
     FM301200 32005KT 2SM BR OVC003=

USA.gov is the U.S. government's official web portal to all federal, state and local government web resources and services.